Time;durP1;ratioP1;P1;durP2;ratioP2;P2;SDS_P1;SDS_P2;PMS_P1;PMS_P2;Temp;Humidity;BMP_temperature;BMP_pressure;BME280_temperature;BME280_humidity;BME280_pressure;Samples;Min_cycle;Max_cycle;Signal;HPM_P1;HPM_P2
2021/09/09 00:01:35;;;;;;;4.15;3.15;;;19.70;99.90;;;;;;5076585;28;20766;-72
2021/09/09 00:04:02;;;;;;;4.35;3.95;;;19.70;99.90;;;;;;5079383;28;20801;-71
2021/09/09 00:06:30;;;;;;;4.47;4.07;;;19.70;99.90;;;;;;5087597;28;20217;-73
2021/09/09 00:08:57;;;;;;;3.60;3.30;;;19.60;99.90;;;;;;5086669;28;20233;-71
2021/09/09 00:11:24;;;;;;;3.17;2.88;;;19.60;99.90;;;;;;5079093;28;20783;-71
2021/09/09 00:13:51;;;;;;;4.03;3.25;;;19.50;99.90;;;;;;5072250;28;20277;-71
2021/09/09 00:16:19;;;;;;;3.63;3.33;;;19.60;99.90;;;;;;5076468;28;20214;-73
2021/09/09 00:18:46;;;;;;;3.47;3.20;;;19.60;99.90;;;;;;5080131;28;20217;-71
2021/09/09 00:21:13;;;;;;;3.95;3.65;;;19.60;99.90;;;;;;5078127;28;20311;-71
2021/09/09 00:23:41;;;;;;;3.88;3.58;;;19.60;99.90;;;;;;5077513;28;20282;-71
2021/09/09 00:26:08;;;;;;;4.28;3.88;;;19.60;99.90;;;;;;5078788;28;20831;-70
2021/09/09 00:28:35;;;;;;;5.10;4.40;;;19.40;99.90;;;;;;5075164;28;20282;-71
2021/09/09 00:31:02;;;;;;;4.63;3.88;;;19.40;99.90;;;;;;5080763;28;20291;-71
2021/09/09 00:33:29;;;;;;;4.55;3.88;;;19.20;99.90;;;;;;5077443;28;20225;-71
2021/09/09 00:35:56;;;;;;;4.97;4.22;;;19.10;99.90;;;;;;5074344;28;20679;-72
2021/09/09 00:38:23;;;;;;;5.15;3.92;;;19.00;99.90;;;;;;5078020;28;20221;-72
2021/09/09 00:40:53;;;;;;;4.82;4.25;;;18.90;99.90;;;;;;5078452;28;20648;-71
2021/09/09 00:43:20;;;;;;;3.88;3.47;;;18.80;99.90;;;;;;5077589;28;20271;-71
2021/09/09 00:45:51;;;;;;;4.95;4.35;;;18.70;99.90;;;;;;5076258;28;20221;-72
2021/09/09 00:48:18;;;;;;;4.00;3.70;;;18.60;99.90;;;;;;5072649;28;20241;-72
2021/09/09 00:50:45;;;;;;;4.28;3.88;;;18.50;99.90;;;;;;5070841;28;20233;-71
2021/09/09 00:53:13;;;;;;;4.40;4.00;;;18.40;99.90;;;;;;5091616;28;20252;-71
2021/09/09 00:55:40;;;;;;;4.32;3.92;;;18.40;99.90;;;;;;5075978;28;20209;-71
2021/09/09 00:58:10;;;;;;;5.00;4.57;;;18.30;99.90;;;;;;5072760;28;20225;-71
2021/09/09 01:00:37;;;;;;;3.92;3.63;;;18.20;99.90;;;;;;5077434;28;20229;-72
2021/09/09 01:03:06;;;;;;;3.97;3.67;;;18.10;99.90;;;;;;5071487;28;20278;-72
2021/09/09 01:05:33;;;;;;;4.28;3.88;;;18.20;99.90;;;;;;5081601;28;20223;-71
2021/09/09 01:08:00;;;;;;;5.53;4.22;;;18.30;99.90;;;;;;5080170;28;20229;-71
2021/09/09 01:10:27;;;;;;;7.40;4.10;;;18.20;99.90;;;;;;5081877;28;20286;-71
2021/09/09 01:12:55;;;;;;;4.38;3.97;;;18.20;99.90;;;;;;5081298;28;20275;-71
2021/09/09 01:15:23;;;;;;;5.00;4.38;;;18.30;99.90;;;;;;5071942;28;20236;-72
2021/09/09 01:17:56;;;;;;;4.68;4.28;;;18.30;99.90;;;;;;5080263;28;20229;-71
2021/09/09 01:20:23;;;;;;;7.57;5.05;;;18.30;99.90;;;;;;5068082;28;20221;-71
2021/09/09 01:22:50;;;;;;;5.82;3.85;;;18.30;99.90;;;;;;5073570;28;20213;-72
2021/09/09 01:25:19;;;;;;;4.32;3.92;;;18.20;99.90;;;;;;5081153;28;20217;-72
2021/09/09 01:27:46;;;;;;;3.70;3.40;;;18.20;99.90;;;;;;5073694;28;20967;-72
2021/09/09 01:30:13;;;;;;;3.92;3.63;;;18.20;99.90;;;;;;5080003;28;20232;-72
2021/09/09 01:32:41;;;;;;;4.40;4.00;;;18.30;99.90;;;;;;5080726;28;20225;-71
2021/09/09 01:35:08;;;;;;;4.25;3.85;;;18.30;99.90;;;;;;5081334;28;20225;-72
2021/09/09 01:37:35;;;;;;;4.13;3.80;;;18.40;99.90;;;;;;5087877;28;20221;-72
2021/09/09 01:40:03;;;;;;;4.15;3.65;;;18.40;99.90;;;;;;5076952;28;20274;-72
2021/09/09 01:42:31;;;;;;;4.63;4.22;;;18.40;99.90;;;;;;5070943;28;20229;-71
2021/09/09 01:44:58;;;;;;;4.00;3.70;;;18.50;99.90;;;;;;5080423;28;20654;-72
2021/09/09 01:47:25;;;;;;;4.28;3.88;;;18.50;99.90;;;;;;5080778;28;20229;-71
2021/09/09 01:49:53;;;;;;;4.38;4.05;;;18.50;99.90;;;;;;5079396;28;20807;-71
2021/09/09 01:52:20;;;;;;;4.32;4.03;;;18.40;99.90;;;;;;5081116;28;20330;-71
2021/09/09 01:54:47;;;;;;;4.15;3.85;;;18.40;99.90;;;;;;5085479;28;20216;-72
2021/09/09 01:57:14;;;;;;;4.40;4.00;;;18.30;99.90;;;;;;5087487;28;20217;-71
2021/09/09 01:59:42;;;;;;;4.35;3.95;;;18.30;99.90;;;;;;5083124;28;20228;-73
2021/09/09 02:02:09;;;;;;;3.90;3.60;;;18.30;99.90;;;;;;5081663;28;20270;-71
2021/09/09 02:04:36;;;;;;;4.82;4.32;;;18.20;99.90;;;;;;5076425;28;20622;-71
2021/09/09 02:07:04;;;;;;;4.03;3.72;;;18.30;99.90;;;;;;5071504;28;20221;-71
2021/09/09 02:09:31;;;;;;;4.20;3.75;;;18.30;99.90;;;;;;5081834;28;20231;-71
2021/09/09 02:11:58;;;;;;;3.80;3.47;;;18.30;99.90;;;;;;5081484;28;20240;-71
2021/09/09 02:14:25;;;;;;;4.20;3.80;;;18.30;99.90;;;;;;5076997;28;20258;-71
2021/09/09 02:16:54;;;;;;;5.00;4.03;;;18.20;99.90;;;;;;5078922;28;20648;-73
2021/09/09 02:19:21;;;;;;;4.10;3.67;;;18.10;99.90;;;;;;5079291;28;20630;-71
2021/09/09 02:21:48;;;;;;;4.22;3.83;;;18.10;99.90;;;;;;5080967;28;20221;-73
2021/09/09 02:24:15;;;;;;;4.07;3.78;;;18.10;99.90;;;;;;5092845;28;20227;-72
2021/09/09 02:26:42;;;;;;;4.10;3.80;;;18.10;99.90;;;;;;5083253;28;20286;-71
2021/09/09 02:29:09;;;;;;;3.92;3.63;;;18.00;99.90;;;;;;5078379;28;21656;-71
2021/09/09 02:31:36;;;;;;;3.83;3.53;;;18.00;99.90;;;;;;5073864;28;20226;-71
2021/09/09 02:34:04;;;;;;;3.97;3.60;;;18.10;99.90;;;;;;5070233;28;20229;-71
2021/09/09 02:36:32;;;;;;;3.97;3.67;;;18.10;99.90;;;;;;5078368;28;20217;-71
2021/09/09 02:38:59;;;;;;;4.15;3.75;;;18.20;99.90;;;;;;5080856;28;20758;-72
2021/09/09 02:41:26;;;;;;;4.53;4.10;;;18.20;99.90;;;;;;5073667;28;20580;-72
2021/09/09 02:43:53;;;;;;;3.97;3.67;;;18.20;99.90;;;;;;5081002;28;20233;-71
2021/09/09 02:46:21;;;;;;;4.28;3.88;;;18.20;99.90;;;;;;5081523;28;20713;-71
2021/09/09 02:48:48;;;;;;;4.00;3.63;;;18.20;99.90;;;;;;5078631;28;20224;-73
2021/09/09 02:51:16;;;;;;;4.63;4.03;;;18.20;99.90;;;;;;5080037;28;20584;-76
2021/09/09 02:53:43;;;;;;;4.22;3.83;;;18.20;99.90;;;;;;5076333;28;20225;-70
2021/09/09 02:56:10;;;;;;;5.03;3.83;;;18.20;99.90;;;;;;5077711;28;20222;-71
2021/09/09 02:58:37;;;;;;;3.60;3.30;;;18.30;99.90;;;;;;5078204;28;20225;-72
2021/09/09 03:01:04;;;;;;;4.07;3.78;;;18.30;99.90;;;;;;5081273;28;20257;-72
2021/09/09 03:03:31;;;;;;;4.10;3.80;;;18.30;99.90;;;;;;5093561;28;20225;-71
2021/09/09 03:05:58;;;;;;;4.47;4.07;;;18.30;99.90;;;;;;5092300;28;20249;-71
2021/09/09 03:08:27;;;;;;;4.25;3.85;;;18.30;99.90;;;;;;5096793;28;20229;-71
2021/09/09 03:10:54;;;;;;;4.13;3.83;;;18.20;99.90;;;;;;5094618;28;20283;-72
2021/09/09 03:13:21;;;;;;;4.47;4.07;;;18.20;99.90;;;;;;5095163;28;20221;-72
2021/09/09 03:15:48;;;;;;;4.38;3.97;;;18.20;99.90;;;;;;5092211;28;20213;-73
2021/09/09 03:18:15;;;;;;;4.07;3.70;;;18.10;99.90;;;;;;5082067;28;20232;-71
2021/09/09 03:20:42;;;;;;;4.10;3.70;;;18.10;99.90;;;;;;5076788;28;20241;-71
2021/09/09 03:23:09;;;;;;;4.10;3.70;;;18.10;99.90;;;;;;5072961;28;20648;-72
2021/09/09 03:25:37;;;;;;;3.72;3.42;;;18.10;99.90;;;;;;5080538;28;20309;-71
2021/09/09 03:28:05;;;;;;;3.58;3.28;;;18.00;99.90;;;;;;5077333;28;20229;-71
2021/09/09 03:30:32;;;;;;;3.70;3.40;;;18.00;99.90;;;;;;5079582;28;20646;-71
2021/09/09 03:32:59;;;;;;;4.05;3.75;;;17.90;99.90;;;;;;5077728;28;20769;-72
2021/09/09 03:35:26;;;;;;;4.20;3.90;;;17.90;99.90;;;;;;5080552;28;20229;-72
2021/09/09 03:37:53;;;;;;;3.95;3.63;;;17.80;99.90;;;;;;5075762;28;20293;-71
2021/09/09 03:40:20;;;;;;;3.92;3.63;;;17.80;99.90;;;;;;5080485;28;20213;-72
2021/09/09 03:42:49;;;;;;;3.92;3.63;;;17.70;99.90;;;;;;5078163;28;20300;-72
2021/09/09 03:45:16;;;;;;;4.10;3.80;;;17.70;99.90;;;;;;5077710;28;20222;-71
2021/09/09 03:47:43;;;;;;;3.97;3.67;;;17.70;99.90;;;;;;5078362;28;20622;-70
2021/09/09 03:50:11;;;;;;;4.85;3.67;;;17.70;99.90;;;;;;5078801;28;20225;-71
2021/09/09 03:52:38;;;;;;;3.88;3.58;;;17.60;99.90;;;;;;5075757;28;20276;-71
2021/09/09 03:55:06;;;;;;;5.07;3.90;;;17.60;99.90;;;;;;5090850;28;20233;-73
2021/09/09 03:57:33;;;;;;;4.82;4.32;;;17.60;99.90;;;;;;5085867;28;20214;-72
2021/09/09 04:00:02;;;;;;;4.82;4.32;;;17.50;99.90;;;;;;5079166;28;20218;-72
2021/09/09 04:02:29;;;;;;;3.92;3.63;;;17.50;99.90;;;;;;5077598;28;20232;-71
2021/09/09 04:04:56;;;;;;;4.40;4.00;;;17.50;99.90;;;;;;5076278;28;20217;-72
2021/09/09 04:07:23;;;;;;;4.88;3.90;;;17.50;99.90;;;;;;5076607;28;20290;-71
2021/09/09 04:09:51;;;;;;;4.25;3.95;;;17.50;99.90;;;;;;5081744;28;20232;-72
2021/09/09 04:12:18;;;;;;;4.57;4.18;;;17.50;99.90;;;;;;5073346;28;20217;-73
2021/09/09 04:14:45;;;;;;;4.07;3.67;;;17.50;99.90;;;;;;5079459;28;20244;-69
2021/09/09 04:17:13;;;;;;;3.92;3.63;;;17.50;99.90;;;;;;5076055;28;20283;-70
2021/09/09 04:19:40;;;;;;;4.18;3.78;;;17.40;99.90;;;;;;5083144;28;20221;-70
2021/09/09 04:22:08;;;;;;;5.07;4.45;;;17.30;99.90;;;;;;5077722;28;20314;-70
2021/09/09 04:24:35;;;;;;;4.03;3.63;;;17.30;99.90;;;;;;5080678;28;20597;-70
2021/09/09 04:27:03;;;;;;;3.85;3.45;;;17.30;99.90;;;;;;5078423;28;20703;-70
2021/09/09 04:29:31;;;;;;;3.47;3.17;;;17.20;99.90;;;;;;5070763;28;20271;-71
2021/09/09 04:31:58;;;;;;;4.50;3.58;;;17.20;99.90;;;;;;5078283;28;20296;-71
2021/09/09 04:34:26;;;;;;;3.92;3.55;;;17.20;99.90;;;;;;5078300;28;20225;-71
2021/09/09 04:36:53;;;;;;;3.78;3.47;;;17.10;99.90;;;;;;5077149;28;20270;-70
2021/09/09 04:39:20;;;;;;;4.82;4.20;;;17.10;99.90;;;;;;5081678;28;20263;-71
2021/09/09 04:41:47;;;;;;;4.07;3.75;;;17.10;99.90;;;;;;5088574;28;20279;-71
2021/09/09 04:44:14;;;;;;;4.93;4.43;;;17.00;99.90;;;;;;5082366;28;20687;-70
2021/09/09 04:46:41;;;;;;;3.85;3.55;;;17.00;99.90;;;;;;5084342;28;20221;-70
2021/09/09 04:49:08;;;;;;;4.53;4.10;;;17.00;99.90;;;;;;5081087;28;20302;-70
2021/09/09 04:51:36;;;;;;;4.30;3.90;;;16.90;99.90;;;;;;5082768;28;20229;-72
2021/09/09 04:54:03;;;;;;;4.05;3.75;;;17.00;99.90;;;;;;5081567;28;20244;-71
2021/09/09 04:56:30;;;;;;;3.97;3.67;;;17.00;99.90;;;;;;5075260;28;20678;-70
2021/09/09 04:58:58;;;;;;;4.00;3.60;;;17.00;99.90;;;;;;5080253;28;20225;-71
2021/09/09 05:01:25;;;;;;;4.57;4.18;;;17.00;99.90;;;;;;5079617;28;20244;-70
2021/09/09 05:03:52;;;;;;;4.07;3.78;;;17.00;99.90;;;;;;5078996;28;20225;-71
2021/09/09 05:06:20;;;;;;;4.22;3.85;;;17.00;99.90;;;;;;5081686;28;20217;-71
2021/09/09 05:08:48;;;;;;;4.40;4.00;;;17.00;99.90;;;;;;5078476;28;20221;-71
2021/09/09 05:11:17;;;;;;;4.60;3.75;;;17.00;99.90;;;;;;5080512;28;20295;-70
2021/09/09 05:13:44;;;;;;;4.00;3.65;;;17.00;99.90;;;;;;5080164;28;20699;-70
2021/09/09 05:16:11;;;;;;;3.97;3.67;;;17.00;99.90;;;;;;5075616;28;20226;-70
2021/09/09 05:18:38;;;;;;;4.55;4.15;;;17.00;99.90;;;;;;5081017;28;20520;-70
2021/09/09 05:21:05;;;;;;;4.30;3.83;;;17.00;99.90;;;;;;5079166;28;20225;-70
2021/09/09 05:23:33;;;;;;;5.28;3.80;;;17.00;99.90;;;;;;5081200;28;20229;-70
2021/09/09 05:26:01;;;;;;;4.30;4.00;;;17.10;99.90;;;;;;5088118;28;20222;-71
2021/09/09 05:28:28;;;;;;;6.30;4.13;;;17.30;99.90;;;;;;5086262;28;20218;-71
2021/09/09 05:30:55;;;;;;;5.03;4.53;;;17.50;99.90;;;;;;5079965;28;20234;-70
2021/09/09 05:33:22;;;;;;;4.75;4.25;;;17.60;99.90;;;;;;5079570;28;20302;-71
2021/09/09 05:35:49;;;;;;;6.40;4.20;;;17.80;99.90;;;;;;5081628;28;20221;-70
2021/09/09 05:38:16;;;;;;;4.68;4.28;;;18.00;99.90;;;;;;5080138;28;20279;-71
2021/09/09 05:40:43;;;;;;;4.63;4.22;;;18.20;99.90;;;;;;5078672;28;20312;-70
2021/09/09 05:43:12;;;;;;;4.57;3.95;;;18.40;99.90;;;;;;5080209;28;20223;-70
2021/09/09 05:45:39;;;;;;;4.90;4.40;;;18.50;99.90;;;;;;5082748;28;20283;-71
2021/09/09 05:48:06;;;;;;;8.35;5.07;;;18.70;99.90;;;;;;5078170;28;20274;-71
2021/09/09 05:50:33;;;;;;;5.43;4.93;;;18.90;99.90;;;;;;5075681;28;20285;-71
2021/09/09 05:53:00;;;;;;;5.50;5.00;;;19.10;99.90;;;;;;5077988;28;20756;-71
2021/09/09 05:55:27;;;;;;;5.35;4.85;;;19.20;99.90;;;;;;5081563;28;20232;-71
2021/09/09 05:57:54;;;;;;;6.00;5.50;;;19.30;99.90;;;;;;5081998;28;20274;-71
2021/09/09 06:00:24;;;;;;;5.85;4.90;;;19.30;99.90;;;;;;5079201;28;20314;-69
2021/09/09 06:02:51;;;;;;;4.88;4.47;;;19.40;99.90;;;;;;5079104;28;20213;-70
2021/09/09 06:05:19;;;;;;;5.85;5.25;;;19.60;99.90;;;;;;5076971;28;20225;-71
2021/09/09 06:07:46;;;;;;;5.95;5.45;;;19.70;99.90;;;;;;5074750;28;20757;-70
2021/09/09 06:10:13;;;;;;;5.97;5.45;;;19.90;99.90;;;;;;5081228;28;20733;-70
2021/09/09 06:12:41;;;;;;;6.57;5.15;;;20.00;99.90;;;;;;5092684;28;20247;-71
2021/09/09 06:15:08;;;;;;;5.35;4.85;;;20.10;99.90;;;;;;5076213;28;20221;-71
2021/09/09 06:17:37;;;;;;;5.40;4.90;;;20.20;99.90;;;;;;5077819;28;20258;-71
2021/09/09 06:20:05;;;;;;;6.43;5.82;;;20.30;99.90;;;;;;5080665;28;20224;-71
2021/09/09 06:22:32;;;;;;;5.70;5.20;;;20.30;99.90;;;;;;5081243;28;20225;-70
2021/09/09 06:24:59;;;;;;;5.55;5.00;;;20.40;99.90;;;;;;5079059;28;20233;-72
2021/09/09 06:27:26;;;;;;;5.57;5.05;;;20.50;99.90;;;;;;5081949;28;20229;-70
2021/09/09 06:29:53;;;;;;;7.00;5.38;;;20.50;99.90;;;;;;5077655;28;20637;-70
2021/09/09 06:32:20;;;;;;;6.35;5.25;;;20.50;99.90;;;;;;5077922;28;20252;-71
2021/09/09 06:34:48;;;;;;;7.28;5.35;;;20.50;99.90;;;;;;5076538;28;20221;-71
2021/09/09 06:37:15;;;;;;;7.13;5.85;;;20.70;99.90;;;;;;5073857;28;20224;-71
2021/09/09 06:39:42;;;;;;;6.30;5.70;;;20.70;99.90;;;;;;5076384;28;20240;-70
2021/09/09 06:42:09;;;;;;;8.18;5.53;;;20.80;99.90;;;;;;5073836;28;20229;-71
2021/09/09 06:44:36;;;;;;;6.35;5.75;;;21.00;99.90;;;;;;5068441;28;20233;-71
2021/09/09 06:47:04;;;;;;;6.75;6.03;;;21.10;99.90;;;;;;5052738;28;20827;-71
2021/09/09 06:49:31;;;;;;;6.40;5.80;;;21.20;99.90;;;;;;5065682;28;20213;-72
2021/09/09 06:51:59;;;;;;;7.82;6.60;;;21.20;99.90;;;;;;5069167;28;20295;-73
2021/09/09 06:54:26;;;;;;;6.88;6.28;;;21.10;99.90;;;;;;5066388;28;20225;-73
2021/09/09 06:56:53;;;;;;;6.78;6.18;;;21.10;99.90;;;;;;5077364;28;20229;-73
2021/09/09 06:59:20;;;;;;;6.40;5.80;;;21.00;99.90;;;;;;5079000;28;20322;-73
2021/09/09 07:01:47;;;;;;;6.95;6.25;;;21.00;99.90;;;;;;5071629;28;20346;-72
2021/09/09 07:04:14;;;;;;;5.85;5.25;;;21.20;99.90;;;;;;5063490;28;20241;-72
2021/09/09 07:06:41;;;;;;;5.93;5.40;;;21.20;99.90;;;;;;5068361;28;20266;-73
2021/09/09 07:09:10;;;;;;;6.60;6.00;;;21.50;99.90;;;;;;5070343;28;20533;-72
2021/09/09 07:11:37;;;;;;;6.30;5.70;;;21.70;99.90;;;;;;5067672;28;20233;-73
2021/09/09 07:14:04;;;;;;;5.97;5.40;;;22.10;99.90;;;;;;5063852;28;20225;-71
2021/09/09 07:16:31;;;;;;;6.40;5.70;;;22.30;99.90;;;;;;5066718;28;20640;-72
2021/09/09 07:18:58;;;;;;;6.10;5.60;;;22.50;99.90;;;;;;5067222;28;20222;-71
2021/09/09 07:21:25;;;;;;;5.93;5.43;;;22.70;99.90;;;;;;5061636;28;20734;-71
2021/09/09 07:23:52;;;;;;;6.55;5.90;;;22.80;99.90;;;;;;5066301;28;20221;-73
2021/09/09 07:26:20;;;;;;;9.73;6.25;;;22.90;99.90;;;;;;5063548;28;20455;-71
2021/09/09 07:28:47;;;;;;;7.07;5.78;;;22.90;99.90;;;;;;5065321;28;20225;-72
2021/09/09 07:31:14;;;;;;;8.18;6.88;;;22.70;99.90;;;;;;5067069;28;20902;-72
2021/09/09 07:33:42;;;;;;;7.43;6.72;;;22.50;99.90;;;;;;5063884;28;20236;-73
2021/09/09 07:36:09;;;;;;;7.53;6.55;;;22.50;99.90;;;;;;5058647;28;20225;-73
2021/09/09 07:38:36;;;;;;;9.02;7.00;;;22.60;99.90;;;;;;5061184;28;20236;-72
2021/09/09 07:41:04;;;;;;;7.43;6.68;;;22.60;99.90;;;;;;5065173;28;20318;-72
2021/09/09 07:43:33;;;;;;;7.22;6.53;;;22.60;99.90;;;;;;5082098;28;20217;-72
2021/09/09 07:46:00;;;;;;;6.72;6.13;;;22.60;99.90;;;;;;5067287;28;20233;-72
2021/09/09 07:48:28;;;;;;;7.03;6.32;;;22.70;99.90;;;;;;5067146;28;20221;-72
2021/09/09 07:50:55;;;;;;;6.75;6.05;;;22.80;99.90;;;;;;5067798;28;20239;-72
2021/09/09 07:53:22;;;;;;;6.50;5.90;;;22.80;99.90;;;;;;5066465;28;20229;-71
2021/09/09 07:55:50;;;;;;;6.90;6.25;;;23.00;99.90;;;;;;5069291;28;20225;-71
2021/09/09 07:58:17;;;;;;;6.70;6.10;;;23.40;99.90;;;;;;5059659;28;20274;-73
2021/09/09 08:00:45;;;;;;;7.22;5.75;;;23.50;99.90;;;;;;5066149;28;20249;-72
2021/09/09 08:03:12;;;;;;;6.28;5.75;;;23.80;99.90;;;;;;5061398;28;20632;-72
2021/09/09 08:05:39;;;;;;;9.65;6.28;;;23.80;99.90;;;;;;5060941;28;20249;-73
2021/09/09 08:08:07;;;;;;;7.10;5.80;;;23.80;99.90;;;;;;5063400;28;20314;-74
2021/09/09 08:10:34;;;;;;;7.18;6.53;;;23.80;99.90;;;;;;5065244;28;20221;-71
2021/09/09 08:13:01;;;;;;;6.50;5.90;;;23.80;99.90;;;;;;5067488;28;20255;-71
2021/09/09 08:15:28;;;;;;;6.55;5.95;;;23.60;99.90;;;;;;5068266;28;20221;-72
2021/09/09 08:17:57;;;;;;;7.97;5.88;;;23.70;99.90;;;;;;5073544;28;20324;-72
2021/09/09 08:20:24;;;;;;;6.20;5.60;;;23.70;99.90;;;;;;5068381;28;20286;-71
2021/09/09 08:22:51;;;;;;;6.90;6.20;;;23.70;99.90;;;;;;5061019;28;20229;-71
2021/09/09 08:25:18;;;;;;;6.38;5.78;;;23.70;99.90;;;;;;5070076;28;20229;-71
2021/09/09 08:27:45;;;;;;;7.78;6.10;;;23.80;99.90;;;;;;5080894;28;20225;-71
2021/09/09 08:30:12;;;;;;;6.63;5.55;;;23.80;99.90;;;;;;5083937;28;20859;-72
2021/09/09 08:32:39;;;;;;;6.60;5.70;;;24.00;99.90;;;;;;5069768;28;20221;-71
2021/09/09 08:35:10;;;;;;;6.57;5.90;;;24.20;99.90;;;;;;5072536;28;20997;-71
2021/09/09 08:37:37;;;;;;;7.88;6.13;;;24.50;99.90;;;;;;5068431;28;20233;-70
2021/09/09 08:40:07;;;;;;;6.35;5.75;;;24.70;99.90;;;;;;5066399;28;20229;-71
2021/09/09 08:42:34;;;;;;;6.97;5.85;;;24.80;99.90;;;;;;5069461;28;20213;-73
2021/09/09 08:45:02;;;;;;;8.93;6.63;;;24.80;99.90;;;;;;5102523;22;20637;-76
2021/09/09 08:47:30;;;;;;;6.32;5.72;;;24.70;99.90;;;;;;5078739;28;20270;-77
2021/09/09 08:49:57;;;;;;;6.93;6.32;;;24.50;99.90;;;;;;5084788;28;20225;-75
2021/09/09 08:52:26;;;;;;;6.85;6.15;;;24.40;99.90;;;;;;5086265;28;20225;-76
2021/09/09 08:54:53;;;;;;;6.20;5.60;;;24.50;99.90;;;;;;5067706;28;20225;-76
2021/09/09 08:57:21;;;;;;;6.80;6.20;;;24.50;99.90;;;;;;5066118;28;20283;-77
2021/09/09 08:59:48;;;;;;;6.43;5.80;;;24.50;99.90;;;;;;5069799;28;20512;-77
2021/09/09 09:02:17;;;;;;;6.03;5.45;;;24.50;99.90;;;;;;5063530;28;20229;-78
2021/09/09 09:05:02;;;;;;;6.30;5.78;;;24.50;99.90;;;;;;5068128;28;20232;-78
2021/09/09 09:07:33;;;;;;;5.93;5.43;;;24.50;99.90;;;;;;5063153;28;20233;-78
2021/09/09 09:10:03;;;;;;;6.03;5.43;;;24.50;99.90;;;;;;5066412;28;20533;-77
2021/09/09 09:12:39;;;;;;;6.07;5.47;;;24.60;99.90;;;;;;5064557;28;20288;-78
2021/09/09 09:15:18;;;;;;;6.30;5.63;;;24.70;99.90;;;;;;5066013;28;20217;-77
2021/09/09 09:18:00;;;;;;;6.47;5.90;;;24.80;99.90;;;;;;5069548;28;20225;-76
2021/09/09 09:20:40;;;;;;;7.00;6.13;;;24.80;99.90;;;;;;5066394;28;20233;-76
2021/09/09 09:23:15;;;;;;;5.32;4.90;;;24.90;99.90;;;;;;5071921;28;20236;-77
2021/09/09 09:25:52;;;;;;;7.22;5.43;;;25.10;99.90;;;;;;5051795;28;20357;-77
2021/09/09 09:28:39;;;;;;;6.28;5.68;;;25.40;99.90;;;;;;5065988;28;20226;-77
2021/09/09 09:31:08;;;;;;;5.88;5.32;;;25.40;99.90;;;;;;5067520;28;20233;-77
2021/09/09 09:33:37;;;;;;;6.10;5.18;;;25.40;99.90;;;;;;5067078;28;20309;-77
2021/09/09 09:36:21;;;;;;;7.95;5.43;;;25.50;99.90;;;;;;5072469;28;20229;-78
2021/09/09 09:38:51;;;;;;;5.95;5.35;;;25.50;99.90;;;;;;5059026;28;20293;-77
2021/09/09 09:41:20;;;;;;;6.07;5.55;;;25.40;99.90;;;;;;5068903;28;20264;-77
2021/09/09 09:44:00;;;;;;;5.95;5.45;;;25.40;99.90;;;;;;5072491;28;20225;-78
2021/09/09 09:46:38;;;;;;;5.75;5.15;;;25.30;99.90;;;;;;5061287;28;20222;-76
2021/09/09 09:49:23;;;;;;;5.55;4.68;;;25.20;99.90;;;;;;5066897;28;20313;-77
2021/09/09 09:51:51;;;;;;;6.78;5.65;;;25.20;99.90;;;;;;5065419;28;20914;-77
2021/09/09 09:54:21;;;;;;;5.45;4.95;;;25.50;99.90;;;;;;5073517;28;20300;-78
2021/09/09 09:56:50;;;;;;;6.90;5.35;;;25.60;99.90;;;;;;5066628;28;20225;-76
2021/09/09 09:59:17;;;;;;;6.90;5.45;;;25.70;99.90;;;;;;5077641;28;20213;-77
2021/09/09 10:01:45;;;;;;;7.22;5.53;;;26.00;99.90;;;;;;5071146;28;20225;-76
2021/09/09 10:04:15;;;;;;;6.15;5.55;;;26.00;99.90;;;;;;5065850;28;20240;-76
2021/09/09 10:06:44;;;;;;;5.22;4.72;;;26.00;99.90;;;;;;5072115;28;20695;-76
2021/09/09 10:09:12;;;;;;;6.82;5.05;;;26.00;99.90;;;;;;5065313;28;20233;-77
2021/09/09 10:11:41;;;;;;;5.28;4.78;;;26.00;99.90;;;;;;5073763;28;20344;-78
2021/09/09 10:14:09;;;;;;;5.30;4.90;;;26.20;99.90;;;;;;5075971;28;20241;-77
2021/09/09 10:16:39;;;;;;;5.50;4.93;;;26.30;99.90;;;;;;5078223;28;20229;-79
2021/09/09 10:19:10;;;;;;;5.13;4.72;;;26.30;99.90;;;;;;5068287;28;20719;-77
2021/09/09 10:21:45;;;;;;;6.32;4.45;;;26.60;99.90;;;;;;5075966;28;20630;-78
2021/09/09 10:24:16;;;;;;;12.00;5.30;;;26.90;99.90;;;;;;5071037;28;20235;-77
2021/09/09 10:26:45;;;;;;;4.50;4.10;;;26.80;99.90;;;;;;5073026;28;20225;-79
2021/09/09 10:29:50;;;;;;;5.55;5.05;;;26.70;99.90;;;;;;5080545;28;20232;-80
2021/09/09 10:32:53;;;;;;;5.82;5.22;;;26.70;99.90;;;;;;5085493;28;20209;-80
2021/09/09 10:35:39;;;;;;;5.68;5.18;;;26.80;99.90;;;;;;5085510;28;20213;-77
2021/09/09 10:38:26;;;;;;;5.78;5.28;;;26.80;99.90;;;;;;5082241;28;20224;-79
2021/09/09 10:40:53;;;;;;;6.43;5.30;;;26.70;99.90;;;;;;5080829;28;20268;-78
2021/09/09 10:43:46;;;;;;;5.95;4.90;;;26.80;99.90;;;;;;5081368;28;20221;-77
2021/09/09 10:46:14;;;;;;;6.05;5.35;;;27.00;99.90;;;;;;5084853;28;20221;-78
2021/09/09 10:48:44;;;;;;;5.70;5.20;;;26.90;99.90;;;;;;5076543;28;20218;-79
2021/09/09 10:51:17;;;;;;;6.15;4.50;;;26.70;99.90;;;;;;5087394;28;20229;-80
2021/09/09 10:56:42;;;;;;;6.57;4.82;;;26.70;99.90;;;;;;5002224;28;20233;-78
2021/09/09 10:59:18;;;;;;;5.38;4.88;;;26.80;99.90;;;;;;5068255;28;20209;-78
2021/09/09 11:01:47;;;;;;;5.53;4.85;;;26.90;99.90;;;;;;5075250;28;20241;-78
2021/09/09 11:04:28;;;;;;;5.82;5.22;;;26.80;99.90;;;;;;5073624;28;20225;-77
2021/09/09 11:06:56;;;;;;;5.35;4.85;;;26.50;99.90;;;;;;5073988;28;20314;-78
2021/09/09 11:09:24;;;;;;;5.55;5.05;;;26.60;99.90;;;;;;5076727;28;20218;-78
2021/09/09 11:11:59;;;;;;;5.45;4.95;;;26.60;99.90;;;;;;5078706;28;20271;-78
2021/09/09 11:14:28;;;;;;;6.80;5.10;;;26.70;99.90;;;;;;5072503;28;20243;-78
2021/09/09 11:16:55;;;;;;;6.18;5.22;;;26.80;99.90;;;;;;5075768;28;20222;-77
2021/09/09 11:19:23;;;;;;;5.40;4.90;;;27.00;99.90;;;;;;5075541;28;20274;-78
2021/09/09 11:21:53;;;;;;;5.55;5.05;;;27.00;99.90;;;;;;5080560;28;20217;-78
2021/09/09 11:24:21;;;;;;;5.60;4.78;;;27.20;99.90;;;;;;5073737;28;20217;-77
2021/09/09 11:26:50;;;;;;;6.53;5.00;;;27.10;99.90;;;;;;5076641;28;20233;-78
2021/09/09 11:29:22;;;;;;;6.75;5.00;;;27.40;99.90;;;;;;5077169;28;20226;-78
2021/09/09 11:31:52;;;;;;;8.40;5.35;;;27.40;99.90;;;;;;5084000;28;20687;-79
2021/09/09 11:34:24;;;;;;;5.45;4.95;;;27.40;99.90;;;;;;5076029;28;20233;-78
2021/09/09 11:36:52;;;;;;;5.50;5.00;;;27.40;99.90;;;;;;5077387;28;20237;-78
2021/09/09 11:39:22;;;;;;;5.57;5.07;;;27.50;99.90;;;;;;5074262;28;20221;-77
2021/09/09 11:41:51;;;;;;;5.68;5.13;;;27.60;99.90;;;;;;5068125;28;20213;-78
2021/09/09 11:44:28;;;;;;;5.07;4.68;;;27.60;99.90;;;;;;5074018;28;20217;-78
2021/09/09 11:46:57;;;;;;;5.18;4.68;;;27.40;99.90;;;;;;5075754;28;20223;-78
2021/09/09 11:49:26;;;;;;;4.88;4.38;;;27.70;99.90;;;;;;5073954;28;20217;-77
2021/09/09 11:51:54;;;;;;;5.32;4.82;;;27.80;99.90;;;;;;5071269;28;20217;-77
2021/09/09 11:54:24;;;;;;;5.38;4.97;;;27.80;99.90;;;;;;5070784;28;20221;-76
2021/09/09 11:56:52;;;;;;;5.15;4.63;;;27.80;99.90;;;;;;5071841;28;20221;-77
2021/09/09 11:59:20;;;;;;;5.78;5.20;;;27.80;99.90;;;;;;5072845;28;20214;-77
2021/09/09 12:01:50;;;;;;;5.38;4.88;;;27.80;99.90;;;;;;5069476;28;20228;-77
2021/09/09 12:04:21;;;;;;;5.63;4.47;;;27.80;99.90;;;;;;5071609;28;20627;-76
2021/09/09 12:06:49;;;;;;;8.10;4.70;;;27.70;99.90;;;;;;5067846;28;20229;-76
2021/09/09 12:09:25;;;;;;;5.38;4.88;;;27.60;99.90;;;;;;5071023;28;20232;-77
2021/09/09 12:12:01;;;;;;;5.38;4.88;;;27.70;99.90;;;;;;5077010;28;20804;-77
2021/09/09 12:14:28;;;;;;;5.63;5.10;;;27.60;99.90;;;;;;5065052;28;20225;-77
2021/09/09 12:17:07;;;;;;;5.72;4.80;;;27.60;99.90;;;;;;5071651;28;20451;-76
2021/09/09 12:20:00;;;;;;;5.57;5.07;;;27.70;99.90;;;;;;5065081;28;20225;-77
2021/09/09 12:22:50;;;;;;;5.15;4.65;;;27.60;99.90;;;;;;5072871;28;20217;-78
2021/09/09 12:25:24;;;;;;;5.30;4.88;;;27.50;99.90;;;;;;5067351;28;20275;-77
2021/09/09 12:28:00;;;;;;;6.03;5.47;;;27.40;99.90;;;;;;5065647;28;21100;-75
2021/09/09 12:30:29;;;;;;;7.25;5.85;;;27.10;99.90;;;;;;5066428;28;20255;-74
2021/09/09 12:32:56;;;;;;;5.15;4.68;;;27.10;99.90;;;;;;5072210;28;20229;-77
2021/09/09 12:35:26;;;;;;;6.78;5.38;;;27.30;99.90;;;;;;5069955;28;20285;-77
2021/09/09 12:38:05;;;;;;;5.43;4.93;;;27.70;99.90;;;;;;5073937;28;20695;-77
2021/09/09 12:40:44;;;;;;;5.38;4.20;;;27.70;99.90;;;;;;5081566;28;20220;-78
2021/09/09 12:43:22;;;;;;;5.95;5.35;;;27.80;99.90;;;;;;5068797;28;20233;-78
2021/09/09 12:45:49;;;;;;;5.25;4.63;;;27.80;99.90;;;;;;5071032;28;20217;-78
2021/09/09 12:48:16;;;;;;;6.40;5.53;;;27.90;99.90;;;;;;5074671;28;20218;-78
2021/09/09 12:50:55;;;;;;;5.35;4.85;;;28.10;99.90;;;;;;5065697;28;20233;-76
2021/09/09 12:53:22;;;;;;;5.45;5.05;;;28.20;99.90;;;;;;5065796;28;20229;-77
2021/09/09 12:55:50;;;;;;;5.15;4.68;;;28.20;99.90;;;;;;5064663;28;20764;-78
2021/09/09 12:58:17;;;;;;;6.85;4.53;;;28.20;99.90;;;;;;5070817;28;20226;-77
2021/09/09 13:00:44;;;;;;;7.57;5.03;;;28.30;99.90;;;;;;5072212;28;20253;-77